createdAt,value
2023-02-24T00:00:07.576Z,69.19
2023-02-24T00:00:28.600Z,69.19
2023-02-24T00:00:49.675Z,69.19
2023-02-24T00:01:10.757Z,69.17
2023-02-24T00:01:31.824Z,69.20
2023-02-24T00:01:52.883Z,69.18
2023-02-24T00:02:14.018Z,69.25
2023-02-24T00:02:35.097Z,69.26
2023-02-24T00:02:56.213Z,69.34
2023-02-24T00:03:17.309Z,69.32
2023-02-24T00:03:38.380Z,69.27
2023-02-24T00:03:59.496Z,69.31
2023-02-24T00:04:20.546Z,69.35
2023-02-24T00:04:41.613Z,69.40
2023-02-24T00:05:02.679Z,69.36
2023-02-24T00:05:23.749Z,69.30
2023-02-24T00:05:44.816Z,69.36
2023-02-24T00:06:05.947Z,69.32
2023-02-24T00:06:26.981Z,69.35
2023-02-24T00:06:48.079Z,69.36
2023-02-24T00:07:09.106Z,69.35
2023-02-24T00:07:30.164Z,69.35
2023-02-24T00:07:51.223Z,69.34
2023-02-24T00:08:12.314Z,69.30
2023-02-24T00:08:33.376Z,69.29
2023-02-24T00:08:54.425Z,69.32
2023-02-24T00:09:15.513Z,69.27
2023-02-24T00:09:36.528Z,69.32
2023-02-24T00:09:57.595Z,69.31
2023-02-24T00:10:18.651Z,69.25
2023-02-24T00:10:39.718Z,69.29
2023-02-24T00:11:00.780Z,69.29
2023-02-24T00:11:22.297Z,69.35
2023-02-24T00:11:43.547Z,69.39
2023-02-24T00:12:04.769Z,69.38
2023-02-24T00:12:25.810Z,69.37
2023-02-24T00:12:46.877Z,69.42
2023-02-24T00:13:07.957Z,69.48
2023-02-24T00:13:29.025Z,69.59
2023-02-24T00:13:50.090Z,69.60
2023-02-24T00:14:11.146Z,69.58
2023-02-24T00:14:32.190Z,69.55
2023-02-24T00:14:53.263Z,69.56
2023-02-24T00:15:14.309Z,69.51
2023-02-24T00:15:35.370Z,69.52
2023-02-24T00:15:56.464Z,69.50
2023-02-24T00:16:17.657Z,69.49
2023-02-24T00:16:39.012Z,69.48
2023-02-24T00:17:00.308Z,69.53
2023-02-24T00:17:21.587Z,69.47
2023-02-24T00:17:42.627Z,69.48
2023-02-24T00:18:03.684Z,69.61
2023-02-24T00:18:24.854Z,69.62
2023-02-24T00:18:45.957Z,69.63
2023-02-24T00:19:07.029Z,69.57
2023-02-24T00:19:28.083Z,69.64
2023-02-24T00:19:49.141Z,69.66
2023-02-24T00:20:10.198Z,69.69
2023-02-24T00:20:31.267Z,69.67
2023-02-24T00:20:52.315Z,69.69
2023-02-24T00:21:13.386Z,69.68
2023-02-24T00:21:34.455Z,69.70
2023-02-24T00:21:55.519Z,69.69
2023-02-24T00:22:16.547Z,69.74
2023-02-24T00:22:37.625Z,69.72
2023-02-24T00:22:58.778Z,69.81
2023-02-24T00:23:19.799Z,69.92
2023-02-24T00:23:40.879Z,69.94
2023-02-24T00:24:02.028Z,69.92
2023-02-24T00:24:23.062Z,69.87
2023-02-24T00:24:44.098Z,69.83
2023-02-24T00:25:05.150Z,69.89
2023-02-24T00:25:26.228Z,69.92
2023-02-24T00:25:47.280Z,69.94
2023-02-24T00:26:08.346Z,69.94
2023-02-24T00:26:29.414Z,69.97
2023-02-24T00:26:50.461Z,69.99
2023-02-24T00:27:11.520Z,69.97
2023-02-24T00:27:32.570Z,69.97
2023-02-24T00:27:53.807Z,69.92
2023-02-24T00:28:14.889Z,69.90
2023-02-24T00:28:35.936Z,69.88
2023-02-24T00:28:57.018Z,69.91
2023-02-24T00:29:18.054Z,69.86
2023-02-24T00:29:39.123Z,69.92
2023-02-24T00:30:00.181Z,69.88
2023-02-24T00:30:21.239Z,69.83
2023-02-24T00:30:42.324Z,69.91
2023-02-24T00:31:03.525Z,69.86
2023-02-24T00:31:25.097Z,69.88
2023-02-24T00:31:46.861Z,69.91
2023-02-24T00:32:08.337Z,69.88
2023-02-24T00:32:29.575Z,69.91
2023-02-24T00:32:50.841Z,69.93
2023-02-24T00:33:12.101Z,69.95
2023-02-24T00:33:33.163Z,69.94
2023-02-24T00:33:54.265Z,69.94
2023-02-24T00:34:15.375Z,69.96
2023-02-24T00:34:36.415Z,69.93
2023-02-24T00:34:57.523Z,69.97
2023-02-24T00:35:18.599Z,69.94
2023-02-24T00:35:39.642Z,69.89
2023-02-24T00:36:00.700Z,69.86
2023-02-24T00:36:21.772Z,69.87
2023-02-24T00:36:42.819Z,69.85
2023-02-24T00:37:03.910Z,69.87
2023-02-24T00:37:24.957Z,69.92
2023-02-24T00:37:46.034Z,69.93
2023-02-24T00:38:07.088Z,69.95
2023-02-24T00:38:28.300Z,69.99
2023-02-24T00:38:49.359Z,70.00
2023-02-24T00:39:10.427Z,69.94
2023-02-24T00:39:31.487Z,69.95
2023-02-24T00:39:52.577Z,70.08
2023-02-24T00:40:13.621Z,70.16
2023-02-24T00:40:34.675Z,70.19
2023-02-24T00:40:55.731Z,70.22
2023-02-24T00:41:16.808Z,70.31
2023-02-24T00:41:37.858Z,70.34
2023-02-24T00:41:58.988Z,70.33
2023-02-24T00:42:20.028Z,70.34
2023-02-24T00:42:41.083Z,70.30
2023-02-24T00:43:02.144Z,70.26
2023-02-24T00:43:23.199Z,70.23
2023-02-24T00:43:44.273Z,70.20
2023-02-24T00:44:05.353Z,70.18
2023-02-24T00:44:26.397Z,70.17
2023-02-24T00:44:47.486Z,70.11
2023-02-24T00:45:08.549Z,70.09
2023-02-24T00:45:29.601Z,70.09
2023-02-24T00:45:50.686Z,70.08
2023-02-24T00:46:11.751Z,70.21
2023-02-24T00:46:32.932Z,70.27
2023-02-24T00:46:53.971Z,70.33
2023-02-24T00:47:15.026Z,70.36
2023-02-24T00:47:36.079Z,70.39
2023-02-24T00:47:57.137Z,70.43
2023-02-24T00:48:18.195Z,70.35
2023-02-24T00:48:39.279Z,70.36
2023-02-24T00:49:00.346Z,70.45
2023-02-24T00:49:21.391Z,70.47
2023-02-24T00:49:43.152Z,70.55
2023-02-24T00:50:04.325Z,70.51
2023-02-24T00:50:25.386Z,70.53
2023-02-24T00:50:46.444Z,70.51
2023-02-24T00:51:07.516Z,70.52
2023-02-24T00:51:28.604Z,70.57
2023-02-24T00:51:49.666Z,70.59
2023-02-24T00:52:10.766Z,70.52
2023-02-24T00:52:31.786Z,70.44
2023-02-24T00:52:52.844Z,70.38
2023-02-24T00:53:13.903Z,70.32
2023-02-24T00:53:34.970Z,70.27
2023-02-24T00:53:56.200Z,70.23
2023-02-24T00:54:17.385Z,70.28
2023-02-24T00:54:38.430Z,70.33
2023-02-24T00:54:59.499Z,70.35
2023-02-24T00:55:20.567Z,70.42
2023-02-24T00:55:41.622Z,70.49
2023-02-24T00:56:02.681Z,70.59
2023-02-24T00:56:23.736Z,70.68
2023-02-24T00:56:44.813Z,70.77
2023-02-24T00:57:05.874Z,70.71
2023-02-24T00:57:26.929Z,70.66
2023-02-24T00:57:47.990Z,70.63
2023-02-24T00:58:09.044Z,70.54
2023-02-24T00:58:30.119Z,70.48
2023-02-24T00:58:51.182Z,70.43
2023-02-24T00:59:12.304Z,70.41
2023-02-24T00:59:33.345Z,70.43
2023-02-24T00:59:54.401Z,70.41
2023-02-24T01:00:15.484Z,70.41
2023-02-24T01:00:36.536Z,70.48
2023-02-24T01:00:57.594Z,70.52
2023-02-24T01:01:18.956Z,70.65
2023-02-24T01:01:40.322Z,70.67
2023-02-24T01:02:01.420Z,70.75
2023-02-24T01:02:22.456Z,70.82
2023-02-24T01:02:43.515Z,70.86
2023-02-24T01:03:04.589Z,70.83
2023-02-24T01:03:25.644Z,70.79
2023-02-24T01:03:46.766Z,70.74
2023-02-24T01:04:07.910Z,70.72
2023-02-24T01:04:28.991Z,70.72
2023-02-24T01:04:50.119Z,70.66
2023-02-24T01:05:11.142Z,70.67
2023-02-24T01:05:32.190Z,70.60
2023-02-24T01:05:53.249Z,70.54
2023-02-24T01:06:14.309Z,70.53
2023-02-24T01:06:35.393Z,70.55
2023-02-24T01:06:56.433Z,70.54
2023-02-24T01:07:17.524Z,70.48
2023-02-24T01:07:38.547Z,70.44
2023-02-24T01:07:59.611Z,70.48
2023-02-24T01:08:20.661Z,70.52
2023-02-24T01:08:41.753Z,70.49
2023-02-24T01:09:02.784Z,70.44
2023-02-24T01:09:23.899Z,70.48
2023-02-24T01:09:44.980Z,70.47
2023-02-24T01:10:06.054Z,70.53
2023-02-24T01:10:27.112Z,70.55
2023-02-24T01:10:48.180Z,70.60
2023-02-24T01:11:09.236Z,70.67
2023-02-24T01:11:30.314Z,70.72
2023-02-24T01:11:51.431Z,70.77
2023-02-24T01:12:12.577Z,70.78
2023-02-24T01:12:33.646Z,70.81
2023-02-24T01:12:54.725Z,70.85
2023-02-24T01:13:15.766Z,70.78
2023-02-24T01:13:36.843Z,70.74
2023-02-24T01:13:57.907Z,70.70
2023-02-24T01:14:18.948Z,70.67
2023-02-24T01:14:40.025Z,70.64
2023-02-24T01:15:01.094Z,70.67
2023-02-24T01:15:22.154Z,70.69
2023-02-24T01:15:43.221Z,70.70
2023-02-24T01:16:04.306Z,70.66
2023-02-24T01:16:25.398Z,70.69
2023-02-24T01:16:46.433Z,70.65
2023-02-24T01:17:07.552Z,70.68
2023-02-24T01:17:28.649Z,70.70
2023-02-24T01:17:49.730Z,70.70
2023-02-24T01:18:10.759Z,70.68
2023-02-24T01:18:31.830Z,70.68
2023-02-24T01:18:52.866Z,70.70
2023-02-24T01:19:13.920Z,70.71
2023-02-24T01:19:34.984Z,70.68
2023-02-24T01:19:56.145Z,70.66
2023-02-24T01:20:17.245Z,70.71
2023-02-24T01:20:38.298Z,70.74
2023-02-24T01:20:59.351Z,70.76
2023-02-24T01:21:20.705Z,70.80
2023-02-24T01:21:41.924Z,70.71
2023-02-24T01:22:02.983Z,70.72
2023-02-24T01:22:24.066Z,70.71
2023-02-24T01:22:45.105Z,70.72
2023-02-24T01:23:06.159Z,70.67
2023-02-24T01:23:27.225Z,70.66
2023-02-24T01:23:48.292Z,70.59
2023-02-24T01:24:09.358Z,70.60
2023-02-24T01:24:30.413Z,70.59
2023-02-24T01:24:51.508Z,70.64
2023-02-24T01:25:12.566Z,70.62
2023-02-24T01:25:33.626Z,70.60
2023-02-24T01:25:54.687Z,70.61
2023-02-24T01:26:15.803Z,70.63
2023-02-24T01:26:36.856Z,70.60
2023-02-24T01:26:57.909Z,70.61
2023-02-24T01:27:19.293Z,70.72
2023-02-24T01:27:40.472Z,70.80
2023-02-24T01:28:01.582Z,70.84
2023-02-24T01:28:22.613Z,70.82
2023-02-24T01:28:43.687Z,70.82
2023-02-24T01:29:04.757Z,70.87
2023-02-24T01:29:25.816Z,70.85
2023-02-24T01:29:46.866Z,70.84
2023-02-24T01:30:07.928Z,70.89
2023-02-24T01:30:28.990Z,70.93
2023-02-24T01:30:50.067Z,71.00
2023-02-24T01:31:11.207Z,71.05
2023-02-24T01:31:32.441Z,71.06
2023-02-24T01:31:53.704Z,71.04
2023-02-24T01:32:15.081Z,71.07
2023-02-24T01:32:36.498Z,71.12
2023-02-24T01:32:57.801Z,71.13
2023-02-24T01:33:19.028Z,71.10
2023-02-24T01:33:40.065Z,71.00
2023-02-24T01:34:01.121Z,71.04
2023-02-24T01:34:22.179Z,71.09
2023-02-24T01:34:43.249Z,71.09
2023-02-24T01:35:04.361Z,71.12
2023-02-24T01:35:25.407Z,71.10
2023-02-24T01:35:46.465Z,71.07
2023-02-24T01:36:07.670Z,70.99
2023-02-24T01:36:28.724Z,70.97
2023-02-24T01:36:49.804Z,70.92
2023-02-24T01:37:10.851Z,70.84
2023-02-24T01:37:31.953Z,70.78
2023-02-24T01:37:53.026Z,70.81
2023-02-24T01:38:14.046Z,70.85
2023-02-24T01:38:35.101Z,70.89
2023-02-24T01:38:56.166Z,70.98
2023-02-24T01:39:17.244Z,71.02
2023-02-24T01:39:38.286Z,71.00
2023-02-24T01:39:59.374Z,71.01
2023-02-24T01:40:20.416Z,71.08
2023-02-24T01:40:41.497Z,71.05
2023-02-24T01:41:02.580Z,71.07
2023-02-24T01:41:23.796Z,71.14
2023-02-24T01:41:44.849Z,71.16
2023-02-24T01:42:05.941Z,71.18
2023-02-24T01:42:26.987Z,71.22
2023-02-24T01:42:48.035Z,71.25
2023-02-24T01:43:09.107Z,71.21
2023-02-24T01:43:30.159Z,71.17
2023-02-24T01:43:51.226Z,71.16
2023-02-24T01:44:12.277Z,71.19
2023-02-24T01:44:33.360Z,71.19
2023-02-24T01:44:54.404Z,71.23
2023-02-24T01:45:15.468Z,71.28
2023-02-24T01:45:36.580Z,71.39
2023-02-24T01:45:57.616Z,71.43
2023-02-24T01:46:18.760Z,71.44
2023-02-24T01:46:40.138Z,71.49
2023-02-24T01:47:01.170Z,71.49
2023-02-24T01:47:22.227Z,71.50
2023-02-24T01:47:43.306Z,71.50
2023-02-24T01:48:04.353Z,71.48
2023-02-24T01:48:25.411Z,71.48
2023-02-24T01:48:46.474Z,71.50
2023-02-24T01:49:07.530Z,71.50
2023-02-24T01:49:28.606Z,71.56
2023-02-24T01:49:49.671Z,71.63
2023-02-24T01:50:10.706Z,71.59
2023-02-24T01:50:31.775Z,71.49
2023-02-24T01:50:52.831Z,71.35
2023-02-24T01:51:13.868Z,71.22
2023-02-24T01:51:34.930Z,71.23
2023-02-24T01:51:56.021Z,71.21
2023-02-24T01:52:17.065Z,71.19
2023-02-24T01:52:38.157Z,71.20
2023-02-24T01:52:59.227Z,71.24
2023-02-24T01:53:20.274Z,71.34
2023-02-24T01:53:41.344Z,71.37
2023-02-24T01:54:02.404Z,71.47
2023-02-24T01:54:23.466Z,71.48
2023-02-24T01:54:44.500Z,71.49
2023-02-24T01:55:05.587Z,71.30
2023-02-24T01:55:26.629Z,71.33
2023-02-24T01:55:47.710Z,71.31
2023-02-24T01:56:08.751Z,71.35
2023-02-24T01:56:29.805Z,71.32
2023-02-24T01:56:50.854Z,71.26
2023-02-24T01:57:11.942Z,71.17
2023-02-24T01:57:32.999Z,71.17
2023-02-24T01:57:54.062Z,71.06
2023-02-24T01:58:15.129Z,71.02
2023-02-24T01:58:36.167Z,70.98
2023-02-24T01:58:57.224Z,71.01
2023-02-24T01:59:18.275Z,71.05
2023-02-24T01:59:39.339Z,71.07
2023-02-24T02:00:00.394Z,71.11
2023-02-24T02:00:21.455Z,71.20
2023-02-24T02:00:42.507Z,71.30
2023-02-24T02:01:03.565Z,71.20
2023-02-24T02:01:24.723Z,71.14
2023-02-24T02:01:45.952Z,71.16
2023-02-24T02:02:07.341Z,71.21
2023-02-24T02:02:28.630Z,71.30
2023-02-24T02:02:49.784Z,71.31
2023-02-24T02:03:10.840Z,71.28
2023-02-24T02:03:31.911Z,71.22
2023-02-24T02:03:52.955Z,71.23
2023-02-24T02:04:14.026Z,71.29
2023-02-24T02:04:35.085Z,71.27
2023-02-24T02:04:56.135Z,71.25
2023-02-24T02:05:17.236Z,71.20
2023-02-24T02:05:38.258Z,71.18
2023-02-24T02:05:59.327Z,71.16
2023-02-24T02:06:20.366Z,71.15
2023-02-24T02:06:41.461Z,71.17
2023-02-24T02:07:02.503Z,71.25
2023-02-24T02:07:23.567Z,71.31
2023-02-24T02:07:44.680Z,71.33
2023-02-24T02:08:05.715Z,71.25
2023-02-24T02:08:26.766Z,71.25
2023-02-24T02:08:47.846Z,71.15
2023-02-24T02:09:08.876Z,71.11
2023-02-24T02:09:29.936Z,71.12
2023-02-24T02:09:51.013Z,71.18
2023-02-24T02:10:12.054Z,71.27
2023-02-24T02:10:33.125Z,71.28
2023-02-24T02:10:54.193Z,71.33
2023-02-24T02:11:15.253Z,71.33
2023-02-24T02:11:36.313Z,71.22
2023-02-24T02:11:57.370Z,71.16
2023-02-24T02:12:18.452Z,71.19
2023-02-24T02:12:39.476Z,71.22
2023-02-24T02:13:00.690Z,71.22
2023-02-24T02:13:21.853Z,71.29
2023-02-24T02:13:43.058Z,71.35
2023-02-24T02:14:04.217Z,71.40
2023-02-24T02:14:25.242Z,71.47
2023-02-24T02:14:46.378Z,71.52
2023-02-24T02:15:07.403Z,71.58
2023-02-24T02:15:28.449Z,71.65
2023-02-24T02:15:49.592Z,71.67
2023-02-24T02:16:10.778Z,71.71
2023-02-24T02:16:31.983Z,71.70
2023-02-24T02:16:53.058Z,71.70
2023-02-24T02:17:14.140Z,71.56
2023-02-24T02:17:35.184Z,71.48
2023-02-24T02:17:56.232Z,71.41
2023-02-24T02:18:17.447Z,71.36
2023-02-24T02:18:38.505Z,71.41
2023-02-24T02:18:59.562Z,71.43
2023-02-24T02:19:20.671Z,71.41
2023-02-24T02:19:41.690Z,71.44
2023-02-24T02:20:02.745Z,71.48
2023-02-24T02:20:23.814Z,71.37
2023-02-24T02:20:44.866Z,71.42
2023-02-24T02:21:05.930Z,71.35
2023-02-24T02:21:27.044Z,71.29
2023-02-24T02:21:48.073Z,71.29
2023-02-24T02:22:09.128Z,71.25
2023-02-24T02:22:30.197Z,71.31
2023-02-24T02:22:51.282Z,71.40
2023-02-24T02:23:12.318Z,71.38
2023-02-24T02:23:33.389Z,71.38
2023-02-24T02:23:54.491Z,71.38
2023-02-24T02:24:15.521Z,71.44
2023-02-24T02:24:36.571Z,71.41
2023-02-24T02:24:57.623Z,71.41
2023-02-24T02:25:18.684Z,71.38
2023-02-24T02:25:39.731Z,71.42
2023-02-24T02:26:00.852Z,71.40
2023-02-24T02:26:21.898Z,71.47
2023-02-24T02:26:42.940Z,71.51
2023-02-24T02:27:03.993Z,71.58
2023-02-24T02:27:25.064Z,71.59
2023-02-24T02:27:46.120Z,71.60
2023-02-24T02:28:07.178Z,71.58
2023-02-24T02:28:28.231Z,71.60
2023-02-24T02:28:49.324Z,71.55
2023-02-24T02:29:10.350Z,71.54
2023-02-24T02:29:31.410Z,71.50
2023-02-24T02:29:52.476Z,71.48
2023-02-24T02:30:13.537Z,71.53
2023-02-24T02:30:34.620Z,71.53
2023-02-24T02:30:55.723Z,71.53
2023-02-24T02:31:16.904Z,71.60
2023-02-24T02:31:38.327Z,71.60
2023-02-24T02:31:59.616Z,71.61
2023-02-24T02:32:20.845Z,71.60
2023-02-24T02:32:42.099Z,71.61
2023-02-24T02:33:03.204Z,71.60
2023-02-24T02:33:24.248Z,71.64
2023-02-24T02:33:45.319Z,71.62
2023-02-24T02:34:06.527Z,71.65
2023-02-24T02:34:27.598Z,71.75
2023-02-24T02:34:48.641Z,71.73
2023-02-24T02:35:09.701Z,71.75
2023-02-24T02:35:30.871Z,71.72
2023-02-24T02:35:51.923Z,71.80
2023-02-24T02:36:13.008Z,71.77
2023-02-24T02:36:34.041Z,71.76
2023-02-24T02:36:55.113Z,71.76
2023-02-24T02:37:16.180Z,71.74
2023-02-24T02:37:37.243Z,71.74
2023-02-24T02:37:58.347Z,71.76
2023-02-24T02:38:19.379Z,71.78
2023-02-24T02:38:40.438Z,71.83
2023-02-24T02:39:01.492Z,71.86
2023-02-24T02:39:22.565Z,71.86
2023-02-24T02:39:43.630Z,71.89
2023-02-24T02:40:04.681Z,71.87
2023-02-24T02:40:25.746Z,71.92
2023-02-24T02:40:46.796Z,71.95
2023-02-24T02:41:07.849Z,72.03
2023-02-24T02:41:28.916Z,71.95
2023-02-24T02:41:49.977Z,72.01
2023-02-24T02:42:11.033Z,72.03
2023-02-24T02:42:32.103Z,72.10
2023-02-24T02:42:53.166Z,72.13
2023-02-24T02:43:14.213Z,72.15
2023-02-24T02:43:35.293Z,72.20
2023-02-24T02:43:56.362Z,72.18
2023-02-24T02:44:17.410Z,72.22
2023-02-24T02:44:38.483Z,72.24
2023-02-24T02:44:59.542Z,72.30
2023-02-24T02:45:20.653Z,72.27
2023-02-24T02:45:41.755Z,72.27
2023-02-24T02:46:02.889Z,72.25
2023-02-24T02:46:23.952Z,72.29
2023-02-24T02:46:45.040Z,72.39
2023-02-24T02:47:06.069Z,72.40
2023-02-24T02:47:27.121Z,72.35
2023-02-24T02:47:48.221Z,72.37
2023-02-24T02:48:09.291Z,72.31
2023-02-24T02:48:30.343Z,72.31
2023-02-24T02:48:51.408Z,72.34
2023-02-24T02:49:12.504Z,72.39
2023-02-24T02:49:33.541Z,72.42
2023-02-24T02:49:54.600Z,72.44
2023-02-24T02:50:15.663Z,72.42
2023-02-24T02:50:36.719Z,72.37
2023-02-24T02:50:57.779Z,72.32
2023-02-24T02:51:19.137Z,72.31
2023-02-24T02:51:40.275Z,72.36
2023-02-24T02:52:01.333Z,72.43
2023-02-24T02:52:22.385Z,72.36
2023-02-24T02:52:43.457Z,72.41
2023-02-24T02:53:04.547Z,72.38
2023-02-24T02:53:25.588Z,72.44
2023-02-24T02:53:46.663Z,72.46
2023-02-24T02:54:07.715Z,72.45
2023-02-24T02:54:28.776Z,72.40
2023-02-24T02:54:49.948Z,72.40
2023-02-24T02:55:11.020Z,72.44
2023-02-24T02:55:32.074Z,72.45
2023-02-24T02:55:53.143Z,72.47
2023-02-24T02:56:14.255Z,72.47
2023-02-24T02:56:35.271Z,72.45
2023-02-24T02:56:56.337Z,72.44
2023-02-24T02:57:17.398Z,72.41
2023-02-24T02:57:38.469Z,72.39
2023-02-24T02:57:59.518Z,72.34
2023-02-24T02:58:20.646Z,72.30
2023-02-24T02:58:41.699Z,72.32
2023-02-24T02:59:02.755Z,72.30
2023-02-24T02:59:23.811Z,72.34
2023-02-24T02:59:44.883Z,72.43
2023-02-24T03:00:05.946Z,72.42
2023-02-24T03:00:27.143Z,72.52
2023-02-24T03:00:48.219Z,72.51
2023-02-24T03:01:09.278Z,72.54
2023-02-24T03:01:30.443Z,72.57
2023-02-24T03:01:51.527Z,72.55
2023-02-24T03:02:12.557Z,72.52
2023-02-24T03:02:33.612Z,72.55
2023-02-24T03:02:54.664Z,72.58
2023-02-24T03:03:15.720Z,72.52
2023-02-24T03:03:36.800Z,72.52
2023-02-24T03:03:57.850Z,72.53
2023-02-24T03:04:18.938Z,72.47
2023-02-24T03:04:39.993Z,72.46
2023-02-24T03:05:01.061Z,72.45
2023-02-24T03:05:22.122Z,72.49
2023-02-24T03:05:43.328Z,72.48
2023-02-24T03:06:04.428Z,72.47
2023-02-24T03:06:25.465Z,72.47
2023-02-24T03:06:46.524Z,72.43
2023-02-24T03:07:07.606Z,72.46
2023-02-24T03:07:28.638Z,72.45
2023-02-24T03:07:49.708Z,72.44
2023-02-24T03:08:10.785Z,72.43
2023-02-24T03:08:31.816Z,72.49
2023-02-24T03:08:52.879Z,72.50
2023-02-24T03:09:13.935Z,72.52
2023-02-24T03:09:34.981Z,72.49
2023-02-24T03:09:56.037Z,72.49
2023-02-24T03:10:17.105Z,72.55
2023-02-24T03:10:38.186Z,72.54
2023-02-24T03:10:59.237Z,72.55
2023-02-24T03:11:20.590Z,72.57
2023-02-24T03:11:41.839Z,72.58
2023-02-24T03:12:02.864Z,72.57
2023-02-24T03:12:23.934Z,72.58
2023-02-24T03:12:45.020Z,72.61
2023-02-24T03:13:06.065Z,72.64
2023-02-24T03:13:27.116Z,72.69
2023-02-24T03:13:48.185Z,72.68
2023-02-24T03:14:09.233Z,72.66
2023-02-24T03:14:30.304Z,72.69
2023-02-24T03:14:51.386Z,72.65
2023-02-24T03:15:12.403Z,72.69
2023-02-24T03:15:33.462Z,72.63
2023-02-24T03:15:54.545Z,72.67
2023-02-24T03:16:15.658Z,72.66
2023-02-24T03:16:36.766Z,72.68
2023-02-24T03:16:57.822Z,72.67
2023-02-24T03:17:18.877Z,72.61
2023-02-24T03:17:39.983Z,72.59
2023-02-24T03:18:01.037Z,72.48
2023-02-24T03:18:22.089Z,72.45
2023-02-24T03:18:43.150Z,72.42
2023-02-24T03:19:04.197Z,72.36
2023-02-24T03:19:25.255Z,72.38
2023-02-24T03:19:46.322Z,72.34
2023-02-24T03:20:07.380Z,72.38
2023-02-24T03:20:28.438Z,72.36
2023-02-24T03:20:49.516Z,72.33
2023-02-24T03:21:10.590Z,72.43
2023-02-24T03:21:31.646Z,72.44
2023-02-24T03:21:52.767Z,72.44
2023-02-24T03:22:13.780Z,72.48
2023-02-24T03:22:34.853Z,72.57
2023-02-24T03:22:55.906Z,72.62
2023-02-24T03:23:17.032Z,72.69
2023-02-24T03:23:38.053Z,72.73
2023-02-24T03:23:59.118Z,72.68
2023-02-24T03:24:20.181Z,72.68
2023-02-24T03:24:41.268Z,72.66
2023-02-24T03:25:02.312Z,72.59
2023-02-24T03:25:23.352Z,72.57
2023-02-24T03:25:44.490Z,72.57
2023-02-24T03:26:05.558Z,72.60
2023-02-24T03:26:26.632Z,72.55
2023-02-24T03:26:47.694Z,72.58
2023-02-24T03:27:08.773Z,72.59
2023-02-24T03:27:29.830Z,72.69
2023-02-24T03:27:50.865Z,72.72
2023-02-24T03:28:11.922Z,72.77
2023-02-24T03:28:32.978Z,72.79
2023-02-24T03:28:54.030Z,72.76
2023-02-24T03:29:15.099Z,72.80
2023-02-24T03:29:36.153Z,72.86
2023-02-24T03:29:57.218Z,72.82
2023-02-24T03:30:18.385Z,72.90
2023-02-24T03:30:39.427Z,72.92
2023-02-24T03:31:00.629Z,72.99
2023-02-24T03:31:22.230Z,72.98
2023-02-24T03:31:43.664Z,73.04
2023-02-24T03:32:04.939Z,73.01
2023-02-24T03:32:26.220Z,72.96
2023-02-24T03:32:47.534Z,73.01
2023-02-24T03:33:08.620Z,73.03
2023-02-24T03:33:29.730Z,73.03
2023-02-24T03:33:50.758Z,73.09
2023-02-24T03:34:11.803Z,73.04
2023-02-24T03:34:32.861Z,73.03
2023-02-24T03:34:53.937Z,73.08
2023-02-24T03:35:14.980Z,73.02
2023-02-24T03:35:36.035Z,73.04
2023-02-24T03:35:57.088Z,73.02
2023-02-24T03:36:18.167Z,73.04
2023-02-24T03:36:39.393Z,73.00
2023-02-24T03:37:00.458Z,73.05
2023-02-24T03:37:21.549Z,73.03
2023-02-24T03:37:42.595Z,72.98
2023-02-24T03:38:03.676Z,73.02
2023-02-24T03:38:24.723Z,73.00
2023-02-24T03:38:45.761Z,72.98
2023-02-24T03:39:06.814Z,72.95
2023-02-24T03:39:27.928Z,72.96
2023-02-24T03:39:48.942Z,72.92
2023-02-24T03:40:10.001Z,72.95
2023-02-24T03:40:31.056Z,73.02
2023-02-24T03:40:52.141Z,73.03
2023-02-24T03:41:13.178Z,73.01
2023-02-24T03:41:34.242Z,73.09
2023-02-24T03:41:55.315Z,73.05
2023-02-24T03:42:16.410Z,73.10
2023-02-24T03:42:37.438Z,73.05
2023-02-24T03:42:58.494Z,73.03
2023-02-24T03:43:19.556Z,73.05
2023-02-24T03:43:40.604Z,73.02
2023-02-24T03:44:01.659Z,73.01
2023-02-24T03:44:22.733Z,73.01
2023-02-24T03:44:43.779Z,72.99
2023-02-24T03:45:04.856Z,73.06
2023-02-24T03:45:25.920Z,73.06
2023-02-24T03:45:47.065Z,73.03
2023-02-24T03:46:08.177Z,73.02
2023-02-24T03:46:29.319Z,73.05
2023-02-24T03:46:50.375Z,72.99
2023-02-24T03:47:11.453Z,72.97
2023-02-24T03:47:32.510Z,72.97
2023-02-24T03:47:53.565Z,73.02
2023-02-24T03:48:14.626Z,73.00
2023-02-24T03:48:35.715Z,72.97
2023-02-24T03:48:56.745Z,72.98
2023-02-24T03:49:17.812Z,73.00
2023-02-24T03:49:38.870Z,72.99
2023-02-24T03:49:59.948Z,73.02
2023-02-24T03:50:20.996Z,73.08
2023-02-24T03:50:42.129Z,73.07
2023-02-24T03:51:03.154Z,73.12
2023-02-24T03:51:24.204Z,73.07
2023-02-24T03:51:45.274Z,73.02
2023-02-24T03:52:06.481Z,72.98
2023-02-24T03:52:27.549Z,73.00
2023-02-24T03:52:48.605Z,73.02
2023-02-24T03:53:09.663Z,72.97
2023-02-24T03:53:30.797Z,73.04
2023-02-24T03:53:51.902Z,73.02
2023-02-24T03:54:12.971Z,72.96
2023-02-24T03:54:34.024Z,72.95
2023-02-24T03:54:55.077Z,72.88
2023-02-24T03:55:16.129Z,72.84
2023-02-24T03:55:37.193Z,72.86
2023-02-24T03:55:58.240Z,72.82
2023-02-24T03:56:19.310Z,72.86
2023-02-24T03:56:40.388Z,72.88
2023-02-24T03:57:01.478Z,72.88
2023-02-24T03:57:22.506Z,72.83
2023-02-24T03:57:43.570Z,72.86
2023-02-24T03:58:04.620Z,72.82
2023-02-24T03:58:25.673Z,72.79
2023-02-24T03:58:46.772Z,72.79
2023-02-24T03:59:07.876Z,72.77
2023-02-24T03:59:28.965Z,72.76
2023-02-24T03:59:50.040Z,72.71
2023-02-24T04:00:11.079Z,72.74
2023-02-24T04:00:32.133Z,72.76
2023-02-24T04:00:53.196Z,72.74
2023-02-24T04:01:14.259Z,72.82
2023-02-24T04:01:35.308Z,72.85
2023-02-24T04:01:56.371Z,72.83
2023-02-24T04:02:17.471Z,72.85
2023-02-24T04:02:38.710Z,72.94
2023-02-24T04:02:59.778Z,72.93
2023-02-24T04:03:20.827Z,73.00
2023-02-24T04:03:41.912Z,72.99
2023-02-24T04:04:02.979Z,72.97
2023-02-24T04:04:24.081Z,73.01
2023-02-24T04:04:45.153Z,72.95
2023-02-24T04:05:06.277Z,73.00
2023-02-24T04:05:27.375Z,73.03
2023-02-24T04:05:48.446Z,73.02
2023-02-24T04:06:09.486Z,73.12
2023-02-24T04:06:30.565Z,73.07
2023-02-24T04:06:51.618Z,73.15
2023-02-24T04:07:12.675Z,73.08
2023-02-24T04:07:33.879Z,73.09
2023-02-24T04:07:54.934Z,73.09
2023-02-24T04:08:16.013Z,73.07
2023-02-24T04:08:37.093Z,73.10
2023-02-24T04:08:58.137Z,73.18
2023-02-24T04:09:19.193Z,73.09
2023-02-24T04:09:40.249Z,73.11
2023-02-24T04:10:01.359Z,73.15
2023-02-24T04:10:22.408Z,73.16
2023-02-24T04:10:43.450Z,73.20
2023-02-24T04:11:04.512Z,73.25
2023-02-24T04:11:25.578Z,73.28
2023-02-24T04:11:46.625Z,73.29
2023-02-24T04:12:07.678Z,73.32
2023-02-24T04:12:28.800Z,73.32
2023-02-24T04:12:49.923Z,73.33
2023-02-24T04:13:10.947Z,73.32
2023-02-24T04:13:32.004Z,73.33
2023-02-24T04:13:53.063Z,73.32
2023-02-24T04:14:14.121Z,73.36
2023-02-24T04:14:35.192Z,73.36
2023-02-24T04:14:56.276Z,73.31
2023-02-24T04:15:17.325Z,73.33
2023-02-24T04:15:38.419Z,73.35
2023-02-24T04:15:59.530Z,73.36
2023-02-24T04:16:20.674Z,73.33
2023-02-24T04:16:41.706Z,73.35
2023-02-24T04:17:02.793Z,73.35
2023-02-24T04:17:23.841Z,73.32
2023-02-24T04:17:44.921Z,73.27
2023-02-24T04:18:05.982Z,73.26
2023-02-24T04:18:27.035Z,73.25
2023-02-24T04:18:48.099Z,73.23
2023-02-24T04:19:09.162Z,73.20
2023-02-24T04:19:30.248Z,73.21
2023-02-24T04:19:51.289Z,73.17
2023-02-24T04:20:12.359Z,73.13
2023-02-24T04:20:33.401Z,73.14
2023-02-24T04:20:54.462Z,73.06
2023-02-24T04:21:15.528Z,73.08
2023-02-24T04:21:36.610Z,73.06
2023-02-24T04:21:57.657Z,73.06
2023-02-24T04:22:18.699Z,73.08
2023-02-24T04:22:39.751Z,73.13
2023-02-24T04:23:00.923Z,73.09
2023-02-24T04:23:21.991Z,73.13
2023-02-24T04:23:43.097Z,73.14
2023-02-24T04:24:04.161Z,73.15
2023-02-24T04:24:25.196Z,73.16
2023-02-24T04:24:46.247Z,73.15
2023-02-24T04:25:07.321Z,73.14
2023-02-24T04:25:28.359Z,73.13
2023-02-24T04:25:49.456Z,73.13
2023-02-24T04:26:10.494Z,73.14
2023-02-24T04:26:31.531Z,73.16
2023-02-24T04:26:52.601Z,73.15
2023-02-24T04:27:13.747Z,73.18
2023-02-24T04:27:34.811Z,73.21
2023-02-24T04:27:55.852Z,73.17
2023-02-24T04:28:16.919Z,73.18
2023-02-24T04:28:37.984Z,73.23
2023-02-24T04:28:59.127Z,73.17
2023-02-24T04:29:20.148Z,73.22
2023-02-24T04:29:41.197Z,73.22
2023-02-24T04:30:02.263Z,73.18
2023-02-24T04:30:23.314Z,73.15
2023-02-24T04:30:44.523Z,73.16
2023-02-24T04:31:05.694Z,73.20
2023-02-24T04:31:27.087Z,73.18